Time;durP1;ratioP1;P1;durP2;ratioP2;P2;SDS_P1;SDS_P2;PMS_P1;PMS_P2;Temp;Humidity;BMP_temperature;BMP_pressure;BME280_temperature;BME280_humidity;BME280_pressure;Samples;Min_cycle;Max_cycle;Signal;HPM_P1;HPM_P2
2022/06/22 00:00:18;;;;;;;4.40;1.83;;;17.00;95.50;;;;;;2080033;28;20041;-71
2022/06/22 00:01:41;;;;;;;5.40;1.75;;;17.00;95.80;;;;;;2077031;28;20378;-70
2022/06/22 00:02:43;;;;;;;3.47;1.60;;;16.90;96.00;;;;;;2076702;28;20026;-70
2022/06/22 00:03:50;;;;;;;2.33;1.40;;;16.90;95.90;;;;;;2075480;28;20037;-70
2022/06/22 00:04:57;;;;;;;1.83;1.20;;;16.90;96.00;;;;;;2079719;28;20066;-70
2022/06/22 00:05:58;;;;;;;3.33;1.20;;;16.90;96.20;;;;;;2074188;28;20037;-70
2022/06/22 00:07:06;;;;;;;2.83;1.60;;;16.90;96.30;;;;;;2074773;28;20036;-70
2022/06/22 00:08:15;;;;;;;3.67;1.60;;;16.90;96.30;;;;;;2079751;28;20858;-70
2022/06/22 00:09:32;;;;;;;1.55;1.10;;;16.90;97.40;;;;;;2076688;28;20018;-70
2022/06/22 00:10:41;;;;;;;2.70;1.45;;;16.80;96.80;;;;;;2075662;28;20393;-70
2022/06/22 00:11:44;;;;;;;3.10;1.38;;;16.80;97.30;;;;;;2079868;28;20545;-70
2022/06/22 00:12:50;;;;;;;1.67;1.30;;;16.80;97.90;;;;;;2076142;28;20465;-70
2022/06/22 00:13:56;;;;;;;2.92;1.35;;;16.80;97.60;;;;;;2074278;28;20583;-70
2022/06/22 00:14:59;;;;;;;2.10;1.17;;;16.80;97.50;;;;;;2076885;28;20049;-70
2022/06/22 00:16:06;;;;;;;3.25;1.80;;;16.70;95.50;;;;;;2077612;28;20428;-70
2022/06/22 00:17:20;;;;;;;3.05;1.35;;;16.70;96.90;;;;;;2076484;28;20350;-70
2022/06/22 00:18:45;;;;;;;5.35;1.75;;;16.70;97.40;;;;;;2077759;28;20022;-70
2022/06/22 00:19:46;;;;;;;2.55;1.35;;;16.70;97.60;;;;;;2077270;28;20029;-70
2022/06/22 00:20:55;;;;;;;1.98;1.38;;;16.70;97.30;;;;;;2075477;28;20049;-70
2022/06/22 00:21:57;;;;;;;5.22;1.88;;;16.70;98.50;;;;;;2073478;28;20363;-70
2022/06/22 00:23:16;;;;;;;2.90;1.52;;;16.70;97.90;;;;;;2077907;28;20091;-70
2022/06/22 00:24:23;;;;;;;4.63;1.58;;;16.60;98.70;;;;;;2078049;28;20029;-70
2022/06/22 00:25:37;;;;;;;3.75;1.45;;;16.70;99.60;;;;;;2077837;28;20100;-70
2022/06/22 00:26:47;;;;;;;4.65;1.45;;;16.60;99.50;;;;;;2075776;28;20056;-70
2022/06/22 00:27:48;;;;;;;3.03;1.73;;;16.60;98.70;;;;;;2074928;28;20030;-70
2022/06/22 00:29:04;;;;;;;3.38;1.33;;;16.60;98.70;;;;;;2077092;28;20517;-70
2022/06/22 00:30:18;;;;;;;3.22;1.30;;;16.60;99.20;;;;;;2073740;28;20029;-70
2022/06/22 00:31:42;;;;;;;3.58;1.60;;;16.60;99.30;;;;;;2080310;28;20056;-70
2022/06/22 00:33:13;;;;;;;3.40;1.58;;;16.50;99.10;;;;;;2080195;28;20017;-70
2022/06/22 00:34:23;;;;;;;2.70;1.25;;;16.50;99.70;;;;;;2076706;28;20595;-70
2022/06/22 00:35:49;;;;;;;2.88;1.63;;;16.50;99.70;;;;;;2076362;28;20033;-70
2022/06/22 00:37:05;;;;;;;4.35;1.60;;;16.50;99.90;;;;;;2074012;28;20018;-70
2022/06/22 00:38:09;;;;;;;3.20;1.30;;;16.40;99.90;;;;;;2076618;28;20072;-70
2022/06/22 00:39:18;;;;;;;1.88;1.30;;;16.40;99.90;;;;;;2079971;28;20491;-70
2022/06/22 00:40:18;;;;;;;2.33;1.40;;;16.40;99.90;;;;;;2075679;28;20036;-70
2022/06/22 00:41:24;;;;;;;4.07;1.73;;;16.40;99.90;;;;;;2080012;28;20473;-70
2022/06/22 00:42:28;;;;;;;2.75;1.55;;;16.40;99.90;;;;;;2077802;28;20061;-71
2022/06/22 00:43:33;;;;;;;3.75;1.52;;;16.40;99.90;;;;;;2075351;28;20477;-70
2022/06/22 00:44:34;;;;;;;3.67;1.67;;;16.40;99.90;;;;;;2075453;28;20026;-71
2022/06/22 00:45:34;;;;;;;3.25;1.45;;;16.40;99.90;;;;;;2075500;28;20540;-71
2022/06/22 00:46:43;;;;;;;4.32;1.33;;;16.40;99.90;;;;;;2075694;28;20026;-71
2022/06/22 00:47:46;;;;;;;4.00;1.70;;;16.40;99.90;;;;;;2078456;28;20017;-71
2022/06/22 00:48:50;;;;;;;5.68;1.77;;;16.40;99.90;;;;;;2076866;28;20029;-70
2022/06/22 00:49:59;;;;;;;2.45;1.40;;;16.30;99.90;;;;;;2079025;28;20017;-70
2022/06/22 00:51:04;;;;;;;2.60;1.23;;;16.30;99.90;;;;;;2076929;28;20022;-71
2022/06/22 00:52:08;;;;;;;4.28;1.48;;;16.30;99.90;;;;;;2075028;28;20075;-70
2022/06/22 00:53:24;;;;;;;2.20;1.63;;;16.30;99.90;;;;;;2079059;28;20052;-70
2022/06/22 00:54:28;;;;;;;2.50;1.55;;;16.30;99.90;;;;;;2077404;28;20101;-70
2022/06/22 00:55:39;;;;;;;1.77;1.08;;;16.30;99.90;;;;;;2075422;28;20112;-70
2022/06/22 00:56:50;;;;;;;2.90;1.55;;;16.30;99.90;;;;;;2075530;28;20032;-70
2022/06/22 00:58:24;;;;;;;2.70;1.30;;;16.20;99.90;;;;;;2076745;28;20088;-70
2022/06/22 00:59:50;;;;;;;2.38;1.60;;;16.20;99.90;;;;;;2076117;28;20030;-70
2022/06/22 01:00:59;;;;;;;4.40;1.80;;;16.20;99.90;;;;;;2076210;28;20030;-70
2022/06/22 01:02:12;;;;;;;1.92;1.27;;;16.10;99.90;;;;;;2078267;28;20025;-71
2022/06/22 01:03:54;;;;;;;4.43;1.67;;;16.10;99.90;;;;;;2079894;28;20028;-71
2022/06/22 01:05:06;;;;;;;3.35;1.40;;;16.10;99.90;;;;;;2071220;28;20060;-71
2022/06/22 01:06:21;;;;;;;3.63;1.52;;;16.10;99.90;;;;;;2076655;28;20064;-71
2022/06/22 01:07:42;;;;;;;4.00;1.33;;;16.10;99.90;;;;;;2075631;28;20022;-70
2022/06/22 01:08:57;;;;;;;2.67;1.20;;;16.10;99.90;;;;;;2077341;28;20544;-71
2022/06/22 01:10:28;;;;;;;2.72;1.50;;;16.00;99.90;;;;;;2077089;28;20025;-71
2022/06/22 01:13:13;;;;;;;2.65;1.25;;;16.00;99.90;;;;;;2076234;28;20057;-70
2022/06/22 01:14:21;;;;;;;2.05;1.40;;;16.00;99.90;;;;;;2075669;28;20484;-71
2022/06/22 01:15:36;;;;;;;3.83;1.52;;;16.00;99.90;;;;;;2078540;28;20060;-71
2022/06/22 01:16:40;;;;;;;5.00;1.60;;;16.00;99.90;;;;;;2077467;28;20163;-71
2022/06/22 01:18:06;;;;;;;4.53;1.65;;;16.00;99.90;;;;;;2078186;28;20482;-71
2022/06/22 01:19:16;;;;;;;2.70;1.30;;;16.00;99.90;;;;;;2076889;28;20037;-70
2022/06/22 01:20:29;;;;;;;3.95;1.45;;;16.00;99.90;;;;;;2078405;28;20025;-70
2022/06/22 01:21:39;;;;;;;2.40;1.55;;;15.90;99.90;;;;;;2077502;28;20036;-71
2022/06/22 01:23:18;;;;;;;3.40;1.45;;;15.90;99.90;;;;;;2079539;28;20090;-71
2022/06/22 01:24:52;;;;;;;4.10;1.67;;;15.90;99.90;;;;;;2078430;28;20033;-71
2022/06/22 01:26:07;;;;;;;3.97;1.65;;;15.90;99.90;;;;;;2076476;28;20396;-71
2022/06/22 01:27:36;;;;;;;2.30;1.35;;;15.80;99.90;;;;;;2077392;28;20047;-71
2022/06/22 01:28:37;;;;;;;1.95;1.17;;;15.80;99.90;;;;;;2076333;28;20119;-71
2022/06/22 01:29:50;;;;;;;3.47;1.67;;;15.80;99.90;;;;;;2078513;28;20057;-71
2022/06/22 01:30:55;;;;;;;4.20;1.20;;;15.80;99.90;;;;;;2077410;28;21044;-71
2022/06/22 01:31:59;;;;;;;3.00;1.25;;;15.80;99.90;;;;;;2069554;28;20025;-71
2022/06/22 01:33:12;;;;;;;2.35;1.25;;;15.80;99.90;;;;;;2070739;28;20029;-70
2022/06/22 01:34:16;;;;;;;2.38;1.27;;;15.70;99.90;;;;;;2077012;28;20104;-70
2022/06/22 01:35:26;;;;;;;1.92;1.23;;;15.70;99.90;;;;;;2078370;28;20469;-70
2022/06/22 01:36:33;;;;;;;;;;;15.70;99.90;;;;;;2078239;28;20092;-70
2022/06/22 01:37:34;;;;;;;3.75;1.60;;;15.60;99.90;;;;;;2077280;28;19916;-70
2022/06/22 01:38:38;;;;;;;1.30;1.20;;;15.60;99.90;;;;;;2077084;28;20093;-70
2022/06/22 01:39:39;;;;;;;4.32;1.75;;;15.60;99.90;;;;;;2078721;28;20029;-70
2022/06/22 01:40:48;;;;;;;4.43;1.77;;;15.60;99.90;;;;;;2077122;28;20059;-70
2022/06/22 01:42:07;;;;;;;2.53;1.40;;;15.60;99.90;;;;;;2077960;28;20072;-70
2022/06/22 01:43:15;;;;;;;3.97;1.70;;;15.60;99.90;;;;;;2078517;28;20111;-70
2022/06/22 01:44:21;;;;;;;3.30;1.58;;;15.60;99.90;;;;;;2076641;28;20040;-70
2022/06/22 01:45:39;;;;;;;3.20;1.80;;;15.60;99.90;;;;;;2076616;28;20033;-70
2022/06/22 01:46:55;;;;;;;3.67;1.42;;;15.60;99.90;;;;;;2076426;28;20030;-70
2022/06/22 01:48:00;;;;;;;1.63;1.35;;;15.60;99.90;;;;;;2078336;28;20052;-70
2022/06/22 01:49:13;;;;;;;3.55;1.73;;;15.50;99.90;;;;;;2078764;28;20369;-71
2022/06/22 01:50:33;;;;;;;2.33;1.40;;;15.60;99.90;;;;;;2076474;28;20075;-71
2022/06/22 01:51:52;;;;;;;3.42;1.80;;;15.50;99.90;;;;;;2068835;28;20045;-71
2022/06/22 01:53:29;;;;;;;7.03;1.58;;;15.50;99.90;;;;;;2069789;28;20034;-70
2022/06/22 01:54:37;;;;;;;2.80;1.88;;;15.40;99.90;;;;;;2068062;28;20505;-71
2022/06/22 01:55:51;;;;;;;3.22;1.52;;;15.40;99.90;;;;;;2074563;28;20053;-70
2022/06/22 01:57:21;;;;;;;3.47;1.73;;;15.40;99.90;;;;;;2077946;28;20024;-70
2022/06/22 01:58:37;;;;;;;2.42;1.80;;;15.40;99.90;;;;;;2075889;28;20393;-70
2022/06/22 01:59:55;;;;;;;3.10;1.63;;;15.40;99.90;;;;;;2079076;28;20103;-70
2022/06/22 02:01:26;;;;;;;1.83;1.60;;;15.40;99.90;;;;;;2075414;28;20049;-70
2022/06/22 02:02:39;;;;;;;1.80;1.63;;;15.40;99.90;;;;;;2076561;28;20050;-70
2022/06/22 02:03:45;;;;;;;3.35;1.60;;;15.30;99.90;;;;;;2078314;28;20029;-70
2022/06/22 02:04:58;;;;;;;3.30;1.70;;;15.30;99.90;;;;;;2078927;28;20108;-71
2022/06/22 02:05:59;;;;;;;3.25;1.60;;;15.30;99.90;;;;;;2074108;28;20387;-71
2022/06/22 02:08:38;;;;;;;3.13;1.70;;;15.30;99.90;;;;;;2075099;28;20022;-71
2022/06/22 02:09:53;;;;;;;2.40;1.77;;;15.30;99.90;;;;;;2075908;28;20049;-71
2022/06/22 02:11:01;;;;;;;3.65;1.52;;;15.30;99.90;;;;;;2075970;28;20432;-71
2022/06/22 02:12:18;;;;;;;2.28;1.30;;;15.20;99.90;;;;;;2075673;28;20524;-71
2022/06/22 02:13:40;;;;;;;4.05;1.70;;;15.20;99.90;;;;;;2074681;28;20033;-71
2022/06/22 02:14:47;;;;;;;4.25;1.75;;;15.20;99.90;;;;;;2078970;28;20021;-70
2022/06/22 02:16:11;;;;;;;3.92;1.60;;;15.20;99.90;;;;;;2072231;28;20061;-70
2022/06/22 02:17:17;;;;;;;1.95;1.55;;;15.10;99.90;;;;;;2074163;28;20018;-71
2022/06/22 02:18:43;;;;;;;3.83;1.88;;;15.10;99.90;;;;;;2073806;28;20026;-71
2022/06/22 02:19:43;;;;;;;3.05;1.40;;;15.10;99.90;;;;;;2075298;28;20101;-71
2022/06/22 02:20:44;;;;;;;3.65;1.63;;;15.10;99.90;;;;;;2072923;28;20022;-71
2022/06/22 02:21:50;;;;;;;4.97;1.77;;;15.10;99.90;;;;;;2072255;28;20022;-71
2022/06/22 02:22:58;;;;;;;2.65;1.55;;;15.10;99.90;;;;;;2077852;28;20032;-71
2022/06/22 02:24:05;;;;;;;3.83;2.00;;;15.00;99.90;;;;;;2073829;28;20025;-71
2022/06/22 02:25:08;;;;;;;3.28;1.40;;;15.00;99.90;;;;;;2068107;28;20037;-71
2022/06/22 02:26:13;;;;;;;4.45;1.73;;;15.00;99.90;;;;;;2066350;28;20026;-71
2022/06/22 02:27:18;;;;;;;2.88;2.00;;;15.00;99.90;;;;;;2073996;28;20037;-70
2022/06/22 02:28:19;;;;;;;3.53;1.58;;;15.00;99.90;;;;;;2075896;28;20018;-70
2022/06/22 02:29:25;;;;;;;3.00;1.75;;;15.00;99.90;;;;;;2076326;28;20022;-71
2022/06/22 02:30:25;;;;;;;3.97;1.70;;;15.00;99.90;;;;;;2076893;28;20535;-71
2022/06/22 02:31:27;;;;;;;3.08;1.65;;;15.00;99.90;;;;;;2078995;28;20492;-71
2022/06/22 02:32:32;;;;;;;3.42;1.83;;;15.00;99.90;;;;;;2077647;28;20436;-71
2022/06/22 02:33:35;;;;;;;2.15;1.83;;;15.00;99.90;;;;;;2074943;28;20026;-71
2022/06/22 02:34:39;;;;;;;2.08;1.60;;;15.00;99.90;;;;;;2074495;28;20097;-71
2022/06/22 02:35:41;;;;;;;4.07;1.88;;;15.00;99.90;;;;;;2078024;28;20080;-71
2022/06/22 02:36:45;;;;;;;2.28;1.52;;;15.00;99.90;;;;;;2075293;28;20038;-71
2022/06/22 02:37:53;;;;;;;3.30;1.73;;;14.90;99.90;;;;;;2075519;28;20025;-71
2022/06/22 02:38:58;;;;;;;4.10;1.98;;;14.90;99.90;;;;;;2076281;28;20029;-71
2022/06/22 02:40:03;;;;;;;3.17;1.92;;;14.90;99.90;;;;;;2075537;28;20022;-71
2022/06/22 02:45:03;;;;;;;1.67;1.30;;;14.80;99.90;;;;;;2075092;28;20037;-71
2022/06/22 02:46:04;;;;;;;2.47;1.60;;;14.80;99.90;;;;;;2076332;28;20054;-71
2022/06/22 02:47:22;;;;;;;4.53;1.73;;;14.80;99.90;;;;;;2076130;28;20034;-71
2022/06/22 02:48:30;;;;;;;2.83;1.63;;;14.80;99.90;;;;;;2077481;28;20104;-71
2022/06/22 02:49:35;;;;;;;2.70;1.45;;;14.80;99.90;;;;;;2075260;28;20022;-71
2022/06/22 02:50:46;;;;;;;2.78;1.90;;;14.80;99.90;;;;;;2077190;28;20059;-71
2022/06/22 02:51:49;;;;;;;2.80;1.40;;;14.80;99.90;;;;;;2077284;28;20026;-71
2022/06/22 02:52:52;;;;;;;3.70;1.75;;;14.70;99.90;;;;;;2074644;28;20022;-71
2022/06/22 02:53:56;;;;;;;2.28;1.65;;;14.70;99.90;;;;;;2077841;28;20033;-71
2022/06/22 02:54:59;;;;;;;3.83;1.98;;;14.70;99.90;;;;;;2077015;28;20011;-71
2022/06/22 02:56:03;;;;;;;3.67;1.60;;;14.70;99.90;;;;;;2074758;28;20018;-71
2022/06/22 02:57:22;;;;;;;3.20;1.60;;;14.70;99.90;;;;;;2074619;28;20116;-71
2022/06/22 02:58:26;;;;;;;2.88;1.90;;;14.70;99.90;;;;;;2075673;28;20022;-71
2022/06/22 02:59:27;;;;;;;3.60;1.90;;;14.70;99.90;;;;;;2076409;28;20014;-71
2022/06/22 03:00:38;;;;;;;4.63;1.77;;;14.60;99.90;;;;;;2078915;28;20025;-71
2022/06/22 03:01:39;;;;;;;4.18;1.80;;;14.60;99.90;;;;;;2077659;28;20076;-71
2022/06/22 03:02:41;;;;;;;3.33;1.80;;;14.60;99.90;;;;;;2077105;28;20476;-71
2022/06/22 03:04:04;;;;;;;2.00;1.80;;;14.60;99.90;;;;;;2077628;28;20018;-71
2022/06/22 03:05:05;;;;;;;5.20;1.58;;;14.60;99.90;;;;;;2076877;28;20033;-71
2022/06/22 03:06:10;;;;;;;4.43;2.03;;;14.60;99.90;;;;;;2079218;28;20116;-71
2022/06/22 03:07:11;;;;;;;2.83;1.63;;;14.60;99.90;;;;;;2076965;28;20018;-71
2022/06/22 03:08:13;;;;;;;3.92;1.88;;;14.60;99.90;;;;;;2075948;28;20018;-71
2022/06/22 03:09:15;;;;;;;3.33;1.98;;;14.60;99.90;;;;;;2077662;28;20033;-71
2022/06/22 03:10:29;;;;;;;4.40;2.25;;;14.60;99.90;;;;;;2078533;28;20396;-71
2022/06/22 03:11:32;;;;;;;4.38;1.80;;;14.60;99.90;;;;;;2077677;28;20084;-71
2022/06/22 03:12:33;;;;;;;2.40;1.83;;;14.60;99.90;;;;;;2077619;28;20068;-71
2022/06/22 03:13:44;;;;;;;3.33;1.73;;;14.60;99.90;;;;;;2078000;28;20104;-71
2022/06/22 03:14:57;;;;;;;3.20;1.65;;;14.60;99.90;;;;;;2076603;28;20380;-71
2022/06/22 03:15:58;;;;;;;3.55;2.00;;;14.60;99.90;;;;;;2080546;28;20409;-71
2022/06/22 03:17:03;;;;;;;2.67;1.73;;;14.60;99.90;;;;;;2079454;28;20057;-71
2022/06/22 03:18:05;;;;;;;5.22;1.85;;;14.60;99.90;;;;;;2079218;28;20480;-71
2022/06/22 03:19:12;;;;;;;3.13;2.10;;;14.60;99.90;;;;;;2078460;28;20052;-71
2022/06/22 03:20:16;;;;;;;3.35;1.67;;;14.60;99.90;;;;;;2078498;28;20022;-71
2022/06/22 03:21:18;;;;;;;3.20;1.70;;;14.60;99.90;;;;;;2076757;28;20069;-71
2022/06/22 03:22:37;;;;;;;4.75;2.13;;;14.60;99.90;;;;;;2077372;28;20036;-71
2022/06/22 03:23:59;;;;;;;6.15;1.95;;;14.60;99.90;;;;;;2077143;28;20511;-71
2022/06/22 03:25:21;;;;;;;3.25;1.83;;;14.50;99.90;;;;;;2076102;28;20030;-71
2022/06/22 03:26:26;;;;;;;2.67;1.75;;;14.50;99.90;;;;;;2077569;28;20552;-71
2022/06/22 03:27:35;;;;;;;4.55;1.95;;;14.50;99.90;;;;;;2078536;28;20022;-71
2022/06/22 03:28:40;;;;;;;5.15;1.70;;;14.50;99.90;;;;;;2076390;28;20108;-71
2022/06/22 03:29:58;;;;;;;4.22;1.90;;;14.50;99.90;;;;;;2077487;28;20398;-71
2022/06/22 03:31:18;;;;;;;5.38;2.17;;;14.50;99.90;;;;;;2079302;28;20067;-71
2022/06/22 03:32:28;;;;;;;4.03;2.45;;;14.50;99.90;;;;;;2076947;28;20148;-71
2022/06/22 03:33:44;;;;;;;5.82;1.65;;;14.50;99.90;;;;;;2077598;28;20084;-71
2022/06/22 03:34:50;;;;;;;4.10;1.73;;;14.50;99.90;;;;;;2077916;28;20052;-71
2022/06/22 03:35:56;;;;;;;3.53;1.83;;;14.50;99.90;;;;;;2079086;28;20053;-71
2022/06/22 03:37:10;;;;;;;1.67;1.50;;;14.50;99.90;;;;;;2076467;28;20492;-71
2022/06/22 03:38:17;;;;;;;5.07;2.28;;;14.50;99.90;;;;;;2077683;28;20108;-71
2022/06/22 03:39:20;;;;;;;5.90;2.30;;;14.60;99.90;;;;;;2076409;28;20033;-71
2022/06/22 03:40:33;;;;;;;3.78;1.98;;;14.50;99.90;;;;;;2077595;28;20029;-71
2022/06/22 03:41:56;;;;;;;2.83;2.08;;;14.50;99.90;;;;;;2080479;28;20032;-71
2022/06/22 03:43:04;;;;;;;9.98;2.30;;;14.50;99.90;;;;;;2076563;28;20037;-71
2022/06/22 03:44:20;;;;;;;6.80;2.38;;;14.50;99.90;;;;;;2079739;28;20100;-71
2022/06/22 03:45:28;;;;;;;3.63;2.10;;;14.50;99.90;;;;;;2076011;28;20493;-71
2022/06/22 03:46:37;;;;;;;3.67;2.20;;;14.50;99.90;;;;;;2077576;28;20113;-71
2022/06/22 03:47:57;;;;;;;5.65;1.60;;;14.50;99.90;;;;;;2077259;28;20065;-71
2022/06/22 03:49:07;;;;;;;5.15;2.20;;;14.50;99.90;;;;;;2078117;28;20239;-71
2022/06/22 03:50:33;;;;;;;2.45;1.48;;;14.50;99.90;;;;;;2079348;28;20230;-71
2022/06/22 03:51:48;;;;;;;2.65;1.88;;;14.50;99.90;;;;;;2076627;28;20079;-71
2022/06/22 03:53:14;;;;;;;3.10;2.20;;;14.50;99.90;;;;;;2074665;28;20017;-71
2022/06/22 03:54:23;;;;;;;2.20;2.00;;;14.50;99.90;;;;;;2075264;28;20393;-71
2022/06/22 03:55:38;;;;;;;5.15;2.08;;;14.50;99.90;;;;;;2078960;28;20071;-71
2022/06/22 03:56:44;;;;;;;2.35;1.52;;;14.60;99.90;;;;;;2079280;28;20092;-71
2022/06/22 03:57:49;;;;;;;2.53;2.08;;;14.60;99.90;;;;;;2080264;28;20112;-71
2022/06/22 03:58:51;;;;;;;4.93;2.05;;;14.70;99.90;;;;;;2080075;28;20025;-71
2022/06/22 03:59:53;;;;;;;4.25;2.40;;;14.80;99.90;;;;;;2076900;28;20021;-71
2022/06/22 04:00:54;;;;;;;3.95;2.22;;;14.80;99.90;;;;;;2075279;28;20040;-71
2022/06/22 04:01:56;;;;;;;5.22;2.75;;;14.90;99.90;;;;;;2078315;28;20025;-71
2022/06/22 04:02:57;;;;;;;7.15;2.65;;;15.10;99.90;;;;;;2074472;28;20022;-71
2022/06/22 04:03:58;;;;;;;5.80;2.65;;;15.20;99.90;;;;;;2075987;28;20126;-71
2022/06/22 04:05:00;;;;;;;3.83;2.17;;;15.40;99.90;;;;;;2077495;28;20017;-71
2022/06/22 04:06:03;;;;;;;4.07;2.60;;;15.50;99.90;;;;;;2075849;28;20109;-71
2022/06/22 04:07:04;;;;;;;7.80;2.50;;;15.60;99.90;;;;;;2079426;28;20033;-71
2022/06/22 04:08:05;;;;;;;4.50;1.88;;;15.80;99.90;;;;;;2074729;28;20013;-71
2022/06/22 04:09:32;;;;;;;3.17;1.77;;;16.00;99.90;;;;;;2074561;28;20050;-71
2022/06/22 04:10:49;;;;;;;5.15;2.45;;;16.20;99.90;;;;;;2074746;28;20033;-71
2022/06/22 04:12:17;;;;;;;4.82;2.28;;;16.50;99.90;;;;;;2073877;28;20073;-71
2022/06/22 04:13:26;;;;;;;4.13;2.25;;;16.90;99.90;;;;;;2076513;28;20018;-71
2022/06/22 04:14:33;;;;;;;3.97;2.30;;;17.30;99.90;;;;;;2076928;28;20389;-71
2022/06/22 04:16:10;;;;;;;3.88;2.33;;;17.70;99.90;;;;;;2077061;28;20022;-71
2022/06/22 04:17:29;;;;;;;4.93;2.05;;;18.00;99.90;;;;;;2073818;28;20024;-71
2022/06/22 04:18:36;;;;;;;5.90;2.40;;;18.50;99.90;;;;;;2075807;28;20113;-71
2022/06/22 04:19:42;;;;;;;3.85;2.15;;;18.80;99.70;;;;;;2079532;28;20025;-71
2022/06/22 04:20:54;;;;;;;6.55;2.33;;;19.10;97.80;;;;;;2077556;28;20127;-71
2022/06/22 04:22:15;;;;;;;3.97;2.17;;;19.30;95.40;;;;;;2075298;28;20017;-71
2022/06/22 04:23:37;;;;;;;5.07;2.17;;;19.70;95.20;;;;;;2076902;28;20148;-71
2022/06/22 04:25:00;;;;;;;4.38;2.13;;;20.00;92.50;;;;;;2076938;28;20033;-71
2022/06/22 04:26:27;;;;;;;5.43;2.70;;;20.20;90.80;;;;;;2075635;28;20029;-71
2022/06/22 04:27:37;;;;;;;6.35;2.25;;;20.40;86.50;;;;;;2076990;28;20021;-71
2022/06/22 04:28:42;;;;;;;5.00;1.95;;;20.40;84.90;;;;;;2077505;28;20136;-71
2022/06/22 04:30:00;;;;;;;5.40;2.38;;;20.30;85.60;;;;;;2078691;28;20481;-71
2022/06/22 04:31:02;;;;;;;5.85;2.60;;;20.20;84.80;;;;;;2079533;28;20021;-71
2022/06/22 04:32:16;;;;;;;7.80;2.33;;;20.20;87.70;;;;;;2077028;28;20020;-71
2022/06/22 04:33:44;;;;;;;5.82;2.50;;;20.10;87.20;;;;;;2076354;28;20056;-71
2022/06/22 04:34:59;;;;;;;3.58;2.42;;;19.90;89.10;;;;;;2075595;28;20028;-71
2022/06/22 04:36:10;;;;;;;4.32;2.80;;;19.80;90.30;;;;;;2076089;28;20093;-71
2022/06/22 04:37:30;;;;;;;8.30;1.88;;;19.70;91.30;;;;;;2077555;28;20025;-71
2022/06/22 04:38:39;;;;;;;3.17;2.20;;;19.70;90.90;;;;;;2079168;28;20017;-71
2022/06/22 04:39:46;;;;;;;6.22;2.72;;;19.70;91.30;;;;;;2078315;28;20053;-71
2022/06/22 04:41:17;;;;;;;6.35;2.75;;;19.70;92.30;;;;;;2077900;28;20026;-71
2022/06/22 04:42:17;;;;;;;6.35;2.67;;;19.60;91.30;;;;;;2078227;28;20120;-71
2022/06/22 04:43:18;;;;;;;6.80;2.53;;;19.60;93.50;;;;;;2075630;28;20028;-71
2022/06/22 04:44:26;;;;;;;5.28;2.53;;;19.60;93.60;;;;;;2077894;28;20025;-71
2022/06/22 04:45:33;;;;;;;6.15;2.42;;;19.70;93.70;;;;;;2076714;28;20030;-71
2022/06/22 04:46:39;;;;;;;8.75;2.50;;;19.70;93.70;;;;;;2078895;28;20172;-71
2022/06/22 04:47:39;;;;;;;4.15;2.50;;;19.80;94.30;;;;;;2078697;28;20443;-71
2022/06/22 04:48:46;;;;;;;3.78;2.60;;;19.80;94.80;;;;;;2078112;28;20030;-71
2022/06/22 04:49:54;;;;;;;4.68;2.65;;;19.90;93.70;;;;;;2074295;28;20021;-71
2022/06/22 04:50:58;;;;;;;4.85;2.75;;;19.90;92.70;;;;;;2076158;28;20029;-71
2022/06/22 04:52:12;;;;;;;4.75;2.95;;;20.00;93.00;;;;;;2076637;28;20112;-71
2022/06/22 04:53:26;;;;;;;5.75;3.20;;;20.10;92.30;;;;;;2074403;28;20026;-71
2022/06/22 04:54:32;;;;;;;5.13;2.83;;;20.10;91.10;;;;;;2077684;28;20014;-71
2022/06/22 04:55:38;;;;;;;6.70;2.58;;;20.20;92.00;;;;;;2076794;28;20040;-71
2022/06/22 04:56:44;;;;;;;5.45;2.70;;;20.20;92.10;;;;;;2076445;28;20038;-71
2022/06/22 04:57:48;;;;;;;4.90;2.58;;;20.30;91.20;;;;;;2073262;28;20030;-71
2022/06/22 04:58:53;;;;;;;3.83;2.40;;;20.40;90.90;;;;;;2077417;28;20385;-71
2022/06/22 04:59:55;;;;;;;4.00;2.20;;;20.40;90.60;;;;;;2077113;28;20084;-71
2022/06/22 05:00:57;;;;;;;7.47;2.65;;;20.50;90.80;;;;;;2075687;28;20079;-71
2022/06/22 05:02:04;;;;;;;5.32;2.20;;;20.60;90.20;;;;;;2078324;28;20499;-71
2022/06/22 05:03:10;;;;;;;4.60;2.72;;;20.60;87.50;;;;;;2075147;28;20029;-71
2022/06/22 05:04:22;;;;;;;11.70;3.10;;;20.60;88.50;;;;;;2074479;28;20020;-71
2022/06/22 05:05:27;;;;;;;4.60;2.60;;;20.70;85.30;;;;;;2075318;28;20029;-71
2022/06/22 05:06:38;;;;;;;4.65;2.88;;;20.60;86.90;;;;;;2075572;28;21575;-71
2022/06/22 05:07:45;;;;;;;5.07;2.55;;;20.70;85.40;;;;;;2074893;28;20037;-71
2022/06/22 05:08:59;;;;;;;9.25;2.70;;;20.70;86.80;;;;;;2074253;28;20053;-71
2022/06/22 05:10:01;;;;;;;5.70;2.67;;;20.70;85.00;;;;;;2067299;28;20482;-71
2022/06/22 05:11:04;;;;;;;5.68;2.78;;;20.70;86.10;;;;;;2074387;28;20030;-71
2022/06/22 05:12:13;;;;;;;5.18;2.55;;;20.70;85.40;;;;;;2084580;28;20032;-71
2022/06/22 05:13:36;;;;;;;5.25;2.70;;;20.70;84.70;;;;;;2073798;28;20038;-71
2022/06/22 05:14:36;;;;;;;5.57;2.85;;;20.80;84.00;;;;;;2071468;28;20100;-71
2022/06/22 05:15:39;;;;;;;3.83;2.58;;;20.80;83.00;;;;;;2073359;28;20034;-71
2022/06/22 05:16:41;;;;;;;8.70;3.05;;;20.80;83.50;;;;;;2074917;28;20040;-71
2022/06/22 05:17:41;;;;;;;6.10;2.70;;;20.90;84.20;;;;;;2074866;28;20025;-71
2022/06/22 05:18:44;;;;;;;4.13;2.55;;;20.90;84.30;;;;;;2075487;28;20030;-71
2022/06/22 05:19:58;;;;;;;6.65;3.10;;;21.00;83.40;;;;;;2076046;28;20032;-71
2022/06/22 05:21:05;;;;;;;7.65;3.03;;;21.00;82.00;;;;;;2072912;28;20109;-71
2022/06/22 05:22:14;;;;;;;3.90;2.83;;;21.10;82.20;;;;;;2075103;28;20021;-71
2022/06/22 05:23:17;;;;;;;5.18;2.95;;;21.20;80.90;;;;;;2074981;28;20021;-71
2022/06/22 05:24:34;;;;;;;8.98;2.90;;;21.30;81.10;;;;;;2078071;28;20025;-71
2022/06/22 05:25:36;;;;;;;11.60;2.83;;;21.30;78.70;;;;;;2073089;28;20022;-71
2022/06/22 05:26:38;;;;;;;5.10;2.78;;;21.40;80.00;;;;;;2075481;28;20022;-71
2022/06/22 05:27:48;;;;;;;5.55;2.78;;;21.50;80.40;;;;;;2074947;28;20056;-71
2022/06/22 05:29:06;;;;;;;6.72;3.00;;;21.50;79.20;;;;;;2075534;28;20017;-71
2022/06/22 05:30:08;;;;;;;8.88;3.17;;;21.60;79.80;;;;;;2074108;28;20048;-71
2022/06/22 05:31:22;;;;;;;7.20;2.75;;;21.60;79.20;;;;;;2074569;28;20447;-71
2022/06/22 05:32:33;;;;;;;6.03;2.50;;;21.70;77.20;;;;;;2085716;28;20473;-71
2022/06/22 05:33:36;;;;;;;7.43;3.03;;;21.70;77.30;;;;;;2082766;28;20036;-71
2022/06/22 05:34:39;;;;;;;5.53;3.15;;;21.70;77.50;;;;;;2075216;28;20539;-71
2022/06/22 05:35:49;;;;;;;7.47;3.50;;;21.70;76.80;;;;;;2074107;28;20066;-71
2022/06/22 05:37:12;;;;;;;7.20;3.30;;;21.80;75.10;;;;;;2077144;28;20105;-71
2022/06/22 05:38:16;;;;;;;6.15;3.20;;;21.80;75.30;;;;;;2078142;28;20029;-71
2022/06/22 05:39:17;;;;;;;4.72;3.40;;;21.80;75.10;;;;;;2073273;28;20033;-71
2022/06/22 05:40:20;;;;;;;4.32;3.55;;;21.70;75.50;;;;;;2078131;28;20036;-71
2022/06/22 05:41:27;;;;;;;5.07;3.13;;;21.80;75.00;;;;;;2074859;28;20030;-71
2022/06/22 05:42:29;;;;;;;6.00;2.67;;;21.80;75.00;;;;;;2075388;28;20040;-71
2022/06/22 05:43:35;;;;;;;5.10;2.80;;;21.90;75.20;;;;;;2074464;28;20061;-71
2022/06/22 05:44:35;;;;;;;7.82;2.97;;;21.90;74.60;;;;;;2075567;28;20384;-71
2022/06/22 05:45:45;;;;;;;6.00;3.25;;;22.00;75.70;;;;;;2075163;28;20051;-71
2022/06/22 05:46:55;;;;;;;4.93;3.30;;;22.10;74.90;;;;;;2076294;28;20018;-71
2022/06/22 05:47:56;;;;;;;6.43;2.53;;;22.10;73.40;;;;;;2075498;28;20473;-71
2022/06/22 05:48:57;;;;;;;6.07;3.08;;;22.20;73.80;;;;;;2077413;28;20030;-71
2022/06/22 05:50:21;;;;;;;11.15;3.70;;;22.20;73.70;;;;;;2075089;28;20029;-71
2022/06/22 05:51:41;;;;;;;7.78;3.40;;;22.30;73.30;;;;;;2073826;28;20026;-71
2022/06/22 05:52:51;;;;;;;4.67;3.23;;;22.40;72.30;;;;;;2075945;28;20014;-71
2022/06/22 05:53:58;;;;;;;7.80;2.85;;;22.40;73.70;;;;;;2076165;28;20268;-71
2022/06/22 05:55:05;;;;;;;10.82;3.70;;;22.50;73.10;;;;;;2074740;28;20025;-71
2022/06/22 05:56:18;;;;;;;5.43;2.65;;;22.60;71.90;;;;;;2072311;28;20022;-71
2022/06/22 05:57:42;;;;;;;6.68;3.00;;;22.70;71.00;;;;;;2076686;28;20037;-71
2022/06/22 05:58:58;;;;;;;6.00;3.40;;;22.80;69.60;;;;;;2078197;28;20037;-71
2022/06/22 06:00:04;;;;;;;4.80;3.50;;;22.90;71.20;;;;;;2078579;28;20041;-71
2022/06/22 06:01:15;;;;;;;6.32;3.33;;;22.90;70.90;;;;;;2072922;28;20013;-71
2022/06/22 06:02:29;;;;;;;8.25;3.13;;;23.00;70.00;;;;;;2077055;28;20108;-69
2022/06/22 06:03:39;;;;;;;7.00;3.58;;;23.00;69.80;;;;;;2074426;28;20018;-69
2022/06/22 06:04:48;;;;;;;5.47;2.97;;;23.00;69.40;;;;;;2076307;28;20021;-69
2022/06/22 06:05:52;;;;;;;3.37;2.77;;;23.00;68.10;;;;;;2072272;28;20049;-71
2022/06/22 06:06:59;;;;;;;5.28;2.65;;;23.10;69.20;;;;;;2076962;28;20261;-71
2022/06/22 06:08:02;;;;;;;4.93;2.88;;;23.20;68.40;;;;;;2073617;28;20014;-71
2022/06/22 06:09:12;;;;;;;7.80;3.10;;;23.20;67.30;;;;;;2075001;28;20018;-70
2022/06/22 06:10:21;;;;;;;7.00;3.38;;;23.30;67.50;;;;;;2075631;28;20021;-71
2022/06/22 06:11:28;;;;;;;6.40;3.70;;;23.30;66.50;;;;;;2075704;28;20033;-71